sensor_id;sensor_type;location;lat;lon;timestamp;P1;durP1;ratioP1;P2;durP2;ratioP2
26600;SDS011;14241;49.260;10.496;2024-01-27T00:00:12;10.20;;;2.95;;
26600;SDS011;14241;49.260;10.496;2024-01-27T00:02:39;6.65;;;3.33;;
26600;SDS011;14241;49.260;10.496;2024-01-27T00:05:04;10.38;;;3.30;;
26600;SDS011;14241;49.260;10.496;2024-01-27T00:07:30;7.90;;;3.28;;
26600;SDS011;14241;49.260;10.496;2024-01-27T00:09:55;6.90;;;3.00;;
26600;SDS011;14241;49.260;10.496;2024-01-27T00:12:21;11.10;;;3.53;;
26600;SDS011;14241;49.260;10.496;2024-01-27T00:14:46;8.30;;;3.42;;
26600;SDS011;14241;49.260;10.496;2024-01-27T00:17:11;7.25;;;3.20;;
26600;SDS011;14241;49.260;10.496;2024-01-27T00:19:37;11.35;;;3.35;;
26600;SDS011;14241;49.260;10.496;2024-01-27T00:22:02;8.60;;;3.63;;
26600;SDS011;14241;49.260;10.496;2024-01-27T00:24:28;9.20;;;3.08;;
26600;SDS011;14241;49.260;10.496;2024-01-27T00:26:53;8.50;;;3.45;;
26600;SDS011;14241;49.260;10.496;2024-01-27T00:29:18;9.38;;;4.32;;
26600;SDS011;14241;49.260;10.496;2024-01-27T00:31:44;9.40;;;3.63;;
26600;SDS011;14241;49.260;10.496;2024-01-27T00:34:09;8.05;;;3.53;;
26600;SDS011;14241;49.260;10.496;2024-01-27T00:36:34;10.88;;;3.75;;
26600;SDS011;14241;49.260;10.496;2024-01-27T00:39:02;12.23;;;3.40;;
26600;SDS011;14241;49.260;10.496;2024-01-27T00:41:28;8.57;;;3.13;;
26600;SDS011;14241;49.260;10.496;2024-01-27T00:43:53;12.25;;;3.63;;
26600;SDS011;14241;49.260;10.496;2024-01-27T00:46:18;9.68;;;3.70;;
26600;SDS011;14241;49.260;10.496;2024-01-27T00:48:44;11.50;;;3.55;;
26600;SDS011;14241;49.260;10.496;2024-01-27T00:51:09;9.93;;;3.65;;
26600;SDS011;14241;49.260;10.496;2024-01-27T00:53:34;8.45;;;3.33;;
26600;SDS011;14241;49.260;10.496;2024-01-27T00:56:00;8.25;;;3.45;;
26600;SDS011;14241;49.260;10.496;2024-01-27T00:58:25;9.65;;;3.85;;
26600;SDS011;14241;49.260;10.496;2024-01-27T01:00:50;10.52;;;4.05;;
26600;SDS011;14241;49.260;10.496;2024-01-27T01:03:15;10.32;;;3.95;;
26600;SDS011;14241;49.260;10.496;2024-01-27T01:05:41;14.07;;;4.05;;
26600;SDS011;14241;49.260;10.496;2024-01-27T01:08:06;10.63;;;4.13;;
26600;SDS011;14241;49.260;10.496;2024-01-27T01:10:31;13.65;;;4.15;;
26600;SDS011;14241;49.260;10.496;2024-01-27T01:12:57;15.15;;;4.13;;
26600;SDS011;14241;49.260;10.496;2024-01-27T01:15:22;12.20;;;3.97;;
26600;SDS011;14241;49.260;10.496;2024-01-27T01:17:47;9.65;;;4.20;;
26600;SDS011;14241;49.260;10.496;2024-01-27T01:20:13;11.63;;;4.78;;
26600;SDS011;14241;49.260;10.496;2024-01-27T01:22:38;14.57;;;5.50;;
26600;SDS011;14241;49.260;10.496;2024-01-27T01:25:04;17.55;;;5.32;;
26600;SDS011;14241;49.260;10.496;2024-01-27T01:27:29;12.32;;;5.13;;
26600;SDS011;14241;49.260;10.496;2024-01-27T01:29:54;10.93;;;6.05;;
26600;SDS011;14241;49.260;10.496;2024-01-27T01:32:20;13.95;;;5.38;;
26600;SDS011;14241;49.260;10.496;2024-01-27T01:34:45;16.60;;;6.18;;
26600;SDS011;14241;49.260;10.496;2024-01-27T01:37:11;14.57;;;5.85;;
26600;SDS011;14241;49.260;10.496;2024-01-27T01:39:38;15.68;;;6.15;;
26600;SDS011;14241;49.260;10.496;2024-01-27T01:42:03;14.48;;;5.35;;
26600;SDS011;14241;49.260;10.496;2024-01-27T01:44:29;16.65;;;6.18;;
26600;SDS011;14241;49.260;10.496;2024-01-27T01:46:55;12.60;;;5.93;;
26600;SDS011;14241;49.260;10.496;2024-01-27T01:49:20;11.48;;;5.63;;
26600;SDS011;14241;49.260;10.496;2024-01-27T01:51:46;16.92;;;5.88;;
26600;SDS011;14241;49.260;10.496;2024-01-27T01:54:11;10.38;;;6.15;;
26600;SDS011;14241;49.260;10.496;2024-01-27T01:56:37;13.85;;;5.50;;
26600;SDS011;14241;49.260;10.496;2024-01-27T01:59:02;10.30;;;5.57;;
26600;SDS011;14241;49.260;10.496;2024-01-27T02:01:28;16.92;;;5.40;;
26600;SDS011;14241;49.260;10.496;2024-01-27T02:03:53;11.52;;;5.90;;
26600;SDS011;14241;49.260;10.496;2024-01-27T02:06:19;10.18;;;5.32;;
26600;SDS011;14241;49.260;10.496;2024-01-27T02:08:44;13.38;;;5.70;;
26600;SDS011;14241;49.260;10.496;2024-01-27T02:11:09;13.85;;;5.38;;
26600;SDS011;14241;49.260;10.496;2024-01-27T02:13:34;9.98;;;5.53;;
26600;SDS011;14241;49.260;10.496;2024-01-27T02:16:00;11.00;;;5.38;;
26600;SDS011;14241;49.260;10.496;2024-01-27T02:18:25;9.98;;;4.88;;
26600;SDS011;14241;49.260;10.496;2024-01-27T02:20:50;10.18;;;5.45;;
26600;SDS011;14241;49.260;10.496;2024-01-27T02:23:15;13.98;;;6.13;;
26600;SDS011;14241;49.260;10.496;2024-01-27T02:25:41;12.02;;;5.75;;
26600;SDS011;14241;49.260;10.496;2024-01-27T02:28:06;12.38;;;6.00;;
26600;SDS011;14241;49.260;10.496;2024-01-27T02:30:32;14.60;;;6.13;;
26600;SDS011;14241;49.260;10.496;2024-01-27T02:32:58;12.23;;;5.97;;
26600;SDS011;14241;49.260;10.496;2024-01-27T02:35:23;9.85;;;6.13;;
26600;SDS011;14241;49.260;10.496;2024-01-27T02:37:49;13.77;;;6.18;;
26600;SDS011;14241;49.260;10.496;2024-01-27T02:40:14;14.63;;;6.82;;
26600;SDS011;14241;49.260;10.496;2024-01-27T02:42:39;13.02;;;6.50;;
26600;SDS011;14241;49.260;10.496;2024-01-27T02:45:07;13.40;;;6.70;;
26600;SDS011;14241;49.260;10.496;2024-01-27T02:47:32;14.82;;;6.88;;
26600;SDS011;14241;49.260;10.496;2024-01-27T02:49:58;10.88;;;6.40;;
26600;SDS011;14241;49.260;10.496;2024-01-27T02:52:23;14.80;;;7.50;;
26600;SDS011;14241;49.260;10.496;2024-01-27T02:54:48;13.80;;;6.90;;
26600;SDS011;14241;49.260;10.496;2024-01-27T02:57:14;17.58;;;7.25;;
26600;SDS011;14241;49.260;10.496;2024-01-27T02:59:40;10.70;;;6.60;;
26600;SDS011;14241;49.260;10.496;2024-01-27T03:02:06;11.68;;;6.93;;
26600;SDS011;14241;49.260;10.496;2024-01-27T03:04:31;18.02;;;7.35;;
26600;SDS011;14241;49.260;10.496;2024-01-27T03:06:56;12.30;;;7.20;;
26600;SDS011;14241;49.260;10.496;2024-01-27T03:09:22;15.68;;;7.43;;
26600;SDS011;14241;49.260;10.496;2024-01-27T03:11:47;14.85;;;7.40;;
26600;SDS011;14241;49.260;10.496;2024-01-27T03:14:12;15.45;;;7.68;;
26600;SDS011;14241;49.260;10.496;2024-01-27T03:16:38;17.35;;;8.23;;
26600;SDS011;14241;49.260;10.496;2024-01-27T03:19:03;16.88;;;8.02;;
26600;SDS011;14241;49.260;10.496;2024-01-27T03:21:29;13.85;;;7.72;;
26600;SDS011;14241;49.260;10.496;2024-01-27T03:23:54;14.10;;;7.78;;
26600;SDS011;14241;49.260;10.496;2024-01-27T03:26:19;17.77;;;8.50;;
26600;SDS011;14241;49.260;10.496;2024-01-27T03:28:45;14.45;;;7.78;;
26600;SDS011;14241;49.260;10.496;2024-01-27T03:31:10;15.00;;;7.40;;
26600;SDS011;14241;49.260;10.496;2024-01-27T03:33:35;14.55;;;8.30;;
26600;SDS011;14241;49.260;10.496;2024-01-27T03:36:01;16.83;;;7.85;;
26600;SDS011;14241;49.260;10.496;2024-01-27T03:38:26;16.35;;;7.85;;
26600;SDS011;14241;49.260;10.496;2024-01-27T03:40:51;11.80;;;7.65;;
26600;SDS011;14241;49.260;10.496;2024-01-27T03:43:17;14.27;;;8.10;;
26600;SDS011;14241;49.260;10.496;2024-01-27T03:45:42;14.85;;;7.88;;
26600;SDS011;14241;49.260;10.496;2024-01-27T03:48:07;14.73;;;8.23;;
26600;SDS011;14241;49.260;10.496;2024-01-27T03:50:32;16.85;;;8.23;;
26600;SDS011;14241;49.260;10.496;2024-01-27T03:52:58;17.67;;;7.72;;
26600;SDS011;14241;49.260;10.496;2024-01-27T03:55:23;16.98;;;8.25;;
26600;SDS011;14241;49.260;10.496;2024-01-27T03:57:48;13.30;;;7.80;;
26600;SDS011;14241;49.260;10.496;2024-01-27T04:00:13;17.10;;;8.45;;
26600;SDS011;14241;49.260;10.496;2024-01-27T04:02:39;12.52;;;8.00;;
26600;SDS011;14241;49.260;10.496;2024-01-27T04:05:05;15.48;;;8.02;;
26600;SDS011;14241;49.260;10.496;2024-01-27T04:07:30;13.57;;;8.55;;
26600;SDS011;14241;49.260;10.496;2024-01-27T04:09:55;18.00;;;8.82;;
26600;SDS011;14241;49.260;10.496;2024-01-27T04:12:21;15.63;;;8.38;;
26600;SDS011;14241;49.260;10.496;2024-01-27T04:14:46;18.52;;;8.80;;
26600;SDS011;14241;49.260;10.496;2024-01-27T04:17:11;19.05;;;8.70;;
26600;SDS011;14241;49.260;10.496;2024-01-27T04:19:36;16.95;;;8.80;;
26600;SDS011;14241;49.260;10.496;2024-01-27T04:22:02;14.73;;;8.00;;
26600;SDS011;14241;49.260;10.496;2024-01-27T04:24:28;15.40;;;8.77;;
26600;SDS011;14241;49.260;10.496;2024-01-27T04:26:53;15.93;;;8.90;;
26600;SDS011;14241;49.260;10.496;2024-01-27T04:29:18;21.33;;;8.77;;
26600;SDS011;14241;49.260;10.496;2024-01-27T04:31:44;15.63;;;8.35;;
26600;SDS011;14241;49.260;10.496;2024-01-27T04:34:09;15.68;;;8.55;;
26600;SDS011;14241;49.260;10.496;2024-01-27T04:36:35;10.73;;;8.32;;
26600;SDS011;14241;49.260;10.496;2024-01-27T04:39:00;16.50;;;8.77;;
26600;SDS011;14241;49.260;10.496;2024-01-27T04:41:25;15.02;;;8.77;;
26600;SDS011;14241;49.260;10.496;2024-01-27T04:43:51;13.52;;;8.23;;
26600;SDS011;14241;49.260;10.496;2024-01-27T04:46:18;16.52;;;8.07;;
26600;SDS011;14241;49.260;10.496;2024-01-27T04:48:43;15.98;;;8.00;;
26600;SDS011;14241;49.260;10.496;2024-01-27T04:51:08;12.70;;;7.95;;
26600;SDS011;14241;49.260;10.496;2024-01-27T04:53:33;10.70;;;7.03;;
26600;SDS011;14241;49.260;10.496;2024-01-27T04:55:59;14.80;;;6.55;;
26600;SDS011;14241;49.260;10.496;2024-01-27T04:58:24;13.27;;;6.75;;
26600;SDS011;14241;49.260;10.496;2024-01-27T05:00:49;11.63;;;5.20;;
26600;SDS011;14241;49.260;10.496;2024-01-27T05:03:15;14.73;;;6.57;;
26600;SDS011;14241;49.260;10.496;2024-01-27T05:05:41;17.08;;;8.25;;
26600;SDS011;14241;49.260;10.496;2024-01-27T05:08:07;18.70;;;8.85;;
26600;SDS011;14241;49.260;10.496;2024-01-27T05:10:32;15.23;;;7.85;;
26600;SDS011;14241;49.260;10.496;2024-01-27T05:12:57;19.30;;;8.50;;
26600;SDS011;14241;49.260;10.496;2024-01-27T05:15:23;15.50;;;8.13;;
26600;SDS011;14241;49.260;10.496;2024-01-27T05:17:48;16.17;;;8.75;;
26600;SDS011;14241;49.260;10.496;2024-01-27T05:20:13;17.88;;;9.23;;
26600;SDS011;14241;49.260;10.496;2024-01-27T05:22:39;17.92;;;8.23;;
26600;SDS011;14241;49.260;10.496;2024-01-27T05:25:04;18.85;;;9.57;;
26600;SDS011;14241;49.260;10.496;2024-01-27T05:27:29;17.38;;;8.27;;
26600;SDS011;14241;49.260;10.496;2024-01-27T05:29:55;22.10;;;9.35;;
26600;SDS011;14241;49.260;10.496;2024-01-27T05:32:20;19.20;;;8.93;;
26600;SDS011;14241;49.260;10.496;2024-01-27T05:34:45;19.50;;;8.07;;
26600;SDS011;14241;49.260;10.496;2024-01-27T05:37:11;19.80;;;8.95;;
26600;SDS011;14241;49.260;10.496;2024-01-27T05:39:38;11.20;;;5.65;;
26600;SDS011;14241;49.260;10.496;2024-01-27T05:42:03;12.57;;;5.68;;
26600;SDS011;14241;49.260;10.496;2024-01-27T05:44:28;17.90;;;9.05;;
26600;SDS011;14241;49.260;10.496;2024-01-27T05:46:54;16.92;;;8.85;;
26600;SDS011;14241;49.260;10.496;2024-01-27T05:49:19;23.95;;;7.43;;
26600;SDS011;14241;49.260;10.496;2024-01-27T05:51:44;19.13;;;6.03;;
26600;SDS011;14241;49.260;10.496;2024-01-27T05:54:10;13.07;;;6.25;;
26600;SDS011;14241;49.260;10.496;2024-01-27T05:56:38;17.25;;;6.43;;
26600;SDS011;14241;49.260;10.496;2024-01-27T05:59:03;16.90;;;9.45;;
26600;SDS011;14241;49.260;10.496;2024-01-27T06:01:29;22.15;;;6.90;;
26600;SDS011;14241;49.260;10.496;2024-01-27T06:03:54;19.02;;;9.00;;
26600;SDS011;14241;49.260;10.496;2024-01-27T06:06:19;23.20;;;9.95;;
26600;SDS011;14241;49.260;10.496;2024-01-27T06:08:44;17.70;;;9.55;;
26600;SDS011;14241;49.260;10.496;2024-01-27T06:11:10;16.73;;;8.88;;
26600;SDS011;14241;49.260;10.496;2024-01-27T06:13:35;22.30;;;9.05;;
26600;SDS011;14241;49.260;10.496;2024-01-27T06:16:06;17.75;;;9.52;;
26600;SDS011;14241;49.260;10.496;2024-01-27T06:18:31;17.63;;;9.73;;
26600;SDS011;14241;49.260;10.496;2024-01-27T06:20:56;18.75;;;9.55;;
26600;SDS011;14241;49.260;10.496;2024-01-27T06:23:21;21.77;;;7.72;;
26600;SDS011;14241;49.260;10.496;2024-01-27T06:25:47;24.15;;;10.77;;
26600;SDS011;14241;49.260;10.496;2024-01-27T06:28:12;15.18;;;7.55;;
26600;SDS011;14241;49.260;10.496;2024-01-27T06:30:37;20.35;;;10.55;;
26600;SDS011;14241;49.260;10.496;2024-01-27T06:33:03;20.35;;;6.90;;
26600;SDS011;14241;49.260;10.496;2024-01-27T06:35:28;22.48;;;10.65;;
26600;SDS011;14241;49.260;10.496;2024-01-27T06:37:53;18.55;;;7.95;;
26600;SDS011;14241;49.260;10.496;2024-01-27T06:40:18;21.38;;;10.50;;
26600;SDS011;14241;49.260;10.496;2024-01-27T06:42:44;19.25;;;10.50;;
26600;SDS011;14241;49.260;10.496;2024-01-27T06:45:09;18.80;;;7.78;;
26600;SDS011;14241;49.260;10.496;2024-01-27T06:47:34;18.65;;;10.05;;
26600;SDS011;14241;49.260;10.496;2024-01-27T06:50:00;22.65;;;10.48;;
26600;SDS011;14241;49.260;10.496;2024-01-27T06:52:25;20.67;;;10.00;;
26600;SDS011;14241;49.260;10.496;2024-01-27T06:54:50;19.90;;;8.98;;
26600;SDS011;14241;49.260;10.496;2024-01-27T06:57:19;21.15;;;7.05;;
26600;SDS011;14241;49.260;10.496;2024-01-27T06:59:46;22.92;;;11.52;;
26600;SDS011;14241;49.260;10.496;2024-01-27T07:02:11;21.25;;;11.02;;
26600;SDS011;14241;49.260;10.496;2024-01-27T07:04:39;18.52;;;9.52;;
26600;SDS011;14241;49.260;10.496;2024-01-27T07:07:04;20.58;;;10.60;;
26600;SDS011;14241;49.260;10.496;2024-01-27T07:09:29;18.23;;;10.65;;
26600;SDS011;14241;49.260;10.496;2024-01-27T07:11:55;26.55;;;10.95;;
26600;SDS011;14241;49.260;10.496;2024-01-27T07:14:20;25.42;;;13.10;;
26600;SDS011;14241;49.260;10.496;2024-01-27T07:16:46;26.17;;;11.00;;
26600;SDS011;14241;49.260;10.496;2024-01-27T07:19:11;23.65;;;13.85;;
26600;SDS011;14241;49.260;10.496;2024-01-27T07:21:36;25.52;;;14.57;;
26600;SDS011;14241;49.260;10.496;2024-01-27T07:24:02;23.23;;;11.35;;
26600;SDS011;14241;49.260;10.496;2024-01-27T07:26:28;16.65;;;8.93;;
26600;SDS011;14241;49.260;10.496;2024-01-27T07:28:53;21.33;;;12.55;;
26600;SDS011;14241;49.260;10.496;2024-01-27T07:31:19;18.23;;;8.48;;
26600;SDS011;14241;49.260;10.496;2024-01-27T07:33:45;14.32;;;6.57;;
26600;SDS011;14241;49.260;10.496;2024-01-27T07:36:10;21.83;;;12.25;;
26600;SDS011;14241;49.260;10.496;2024-01-27T07:38:36;25.42;;;11.98;;
26600;SDS011;14241;49.260;10.496;2024-01-27T07:41:02;24.80;;;12.10;;
26600;SDS011;14241;49.260;10.496;2024-01-27T07:43:27;26.27;;;12.82;;
26600;SDS011;14241;49.260;10.496;2024-01-27T07:45:52;23.90;;;12.18;;
26600;SDS011;14241;49.260;10.496;2024-01-27T07:48:18;30.67;;;12.73;;
26600;SDS011;14241;49.260;10.496;2024-01-27T07:50:44;28.65;;;13.15;;
26600;SDS011;14241;49.260;10.496;2024-01-27T07:53:13;23.73;;;12.77;;
26600;SDS011;14241;49.260;10.496;2024-01-27T07:55:38;25.17;;;12.73;;
26600;SDS011;14241;49.260;10.496;2024-01-27T07:58:04;23.63;;;12.70;;
26600;SDS011;14241;49.260;10.496;2024-01-27T08:00:29;21.60;;;11.88;;
26600;SDS011;14241;49.260;10.496;2024-01-27T08:02:56;24.73;;;12.70;;
26600;SDS011;14241;49.260;10.496;2024-01-27T08:05:21;28.90;;;12.65;;
26600;SDS011;14241;49.260;10.496;2024-01-27T08:07:47;23.63;;;12.63;;
26600;SDS011;14241;49.260;10.496;2024-01-27T08:10:12;75.53;;;44.00;;
26600;SDS011;14241;49.260;10.496;2024-01-27T08:12:37;96.93;;;57.10;;
26600;SDS011;14241;49.260;10.496;2024-01-27T08:15:03;62.85;;;39.15;;
26600;SDS011;14241;49.260;10.496;2024-01-27T08:17:29;47.00;;;24.13;;
26600;SDS011;14241;49.260;10.496;2024-01-27T08:19:55;27.92;;;16.05;;
26600;SDS011;14241;49.260;10.496;2024-01-27T08:22:20;36.17;;;17.55;;
26600;SDS011;14241;49.260;10.496;2024-01-27T08:24:45;41.38;;;25.58;;
26600;SDS011;14241;49.260;10.496;2024-01-27T08:27:10;47.67;;;25.58;;
26600;SDS011;14241;49.260;10.496;2024-01-27T08:29:36;47.00;;;27.67;;
26600;SDS011;14241;49.260;10.496;2024-01-27T08:32:01;55.30;;;32.85;;
26600;SDS011;14241;49.260;10.496;2024-01-27T08:34:26;63.95;;;41.20;;
26600;SDS011;14241;49.260;10.496;2024-01-27T08:36:52;76.00;;;50.97;;
26600;SDS011;14241;49.260;10.496;2024-01-27T08:39:17;82.28;;;58.28;;
26600;SDS011;14241;49.260;10.496;2024-01-27T08:41:42;51.45;;;34.20;;
26600;SDS011;14241;49.260;10.496;2024-01-27T08:44:08;30.52;;;14.80;;
26600;SDS011;14241;49.260;10.496;2024-01-27T08:46:34;23.08;;;12.02;;
26600;SDS011;14241;49.260;10.496;2024-01-27T08:48:59;24.02;;;14.30;;
26600;SDS011;14241;49.260;10.496;2024-01-27T08:51:24;27.50;;;12.70;;
26600;SDS011;14241;49.260;10.496;2024-01-27T08:53:50;22.38;;;12.85;;
26600;SDS011;14241;49.260;10.496;2024-01-27T08:56:15;22.75;;;11.98;;
26600;SDS011;14241;49.260;10.496;2024-01-27T08:58:42;24.23;;;12.07;;
26600;SDS011;14241;49.260;10.496;2024-01-27T09:01:08;26.50;;;11.38;;
26600;SDS011;14241;49.260;10.496;2024-01-27T09:03:35;20.15;;;11.50;;
26600;SDS011;14241;49.260;10.496;2024-01-27T09:06:00;18.38;;;10.20;;
26600;SDS011;14241;49.260;10.496;2024-01-27T09:08:25;20.77;;;10.02;;
26600;SDS011;14241;49.260;10.496;2024-01-27T09:10:50;20.58;;;10.32;;
26600;SDS011;14241;49.260;10.496;2024-01-27T09:13:16;22.92;;;10.40;;
26600;SDS011;14241;49.260;10.496;2024-01-27T09:15:41;18.65;;;8.95;;
26600;SDS011;14241;49.260;10.496;2024-01-27T09:18:06;19.42;;;9.65;;
26600;SDS011;14241;49.260;10.496;2024-01-27T09:20:32;19.67;;;9.25;;
26600;SDS011;14241;49.260;10.496;2024-01-27T09:22:57;17.52;;;8.32;;
26600;SDS011;14241;49.260;10.496;2024-01-27T09:25:22;33.33;;;19.23;;
26600;SDS011;14241;49.260;10.496;2024-01-27T09:27:49;24.08;;;9.50;;
26600;SDS011;14241;49.260;10.496;2024-01-27T09:30:15;17.17;;;8.23;;
26600;SDS011;14241;49.260;10.496;2024-01-27T09:32:40;22.20;;;8.65;;
26600;SDS011;14241;49.260;10.496;2024-01-27T09:35:05;18.40;;;8.95;;
26600;SDS011;14241;49.260;10.496;2024-01-27T09:37:31;16.20;;;8.68;;
26600;SDS011;14241;49.260;10.496;2024-01-27T09:39:57;20.98;;;9.48;;
26600;SDS011;14241;49.260;10.496;2024-01-27T09:42:22;38.45;;;22.70;;
26600;SDS011;14241;49.260;10.496;2024-01-27T09:44:49;32.30;;;18.83;;
26600;SDS011;14241;49.260;10.496;2024-01-27T09:47:17;38.00;;;22.83;;
26600;SDS011;14241;49.260;10.496;2024-01-27T09:49:42;35.42;;;19.02;;
26600;SDS011;14241;49.260;10.496;2024-01-27T09:52:08;34.05;;;18.83;;
26600;SDS011;14241;49.260;10.496;2024-01-27T09:54:34;41.75;;;25.20;;
26600;SDS011;14241;49.260;10.496;2024-01-27T09:56:59;33.35;;;19.50;;
26600;SDS011;14241;49.260;10.496;2024-01-27T09:59:25;35.35;;;19.52;;
26600;SDS011;14241;49.260;10.496;2024-01-27T10:01:51;36.50;;;21.42;;
26600;SDS011;14241;49.260;10.496;2024-01-27T10:04:18;27.83;;;16.13;;
26600;SDS011;14241;49.260;10.496;2024-01-27T10:06:44;48.30;;;23.77;;
26600;SDS011;14241;49.260;10.496;2024-01-27T10:09:09;36.03;;;17.42;;
26600;SDS011;14241;49.260;10.496;2024-01-27T10:11:35;34.85;;;18.38;;
26600;SDS011;14241;49.260;10.496;2024-01-27T10:14:01;20.23;;;10.13;;
26600;SDS011;14241;49.260;10.496;2024-01-27T10:16:27;18.98;;;9.55;;
26600;SDS011;14241;49.260;10.496;2024-01-27T10:19:02;38.85;;;22.90;;
26600;SDS011;14241;49.260;10.496;2024-01-27T10:21:28;109.70;;;65.55;;
26600;SDS011;14241;49.260;10.496;2024-01-27T10:23:53;65.88;;;35.13;;
26600;SDS011;14241;49.260;10.496;2024-01-27T10:26:18;34.10;;;17.17;;
26600;SDS011;14241;49.260;10.496;2024-01-27T10:28:54;38.92;;;20.25;;
26600;SDS011;14241;49.260;10.496;2024-01-27T10:31:19;22.67;;;10.10;;
26600;SDS011;14241;49.260;10.496;2024-01-27T10:33:52;34.42;;;16.45;;
26600;SDS011;14241;49.260;10.496;2024-01-27T10:36:18;29.90;;;12.52;;
26600;SDS011;14241;49.260;10.496;2024-01-27T10:38:43;25.33;;;10.77;;
26600;SDS011;14241;49.260;10.496;2024-01-27T10:41:09;26.10;;;11.02;;
26600;SDS011;14241;49.260;10.496;2024-01-27T10:43:38;21.08;;;8.63;;
26600;SDS011;14241;49.260;10.496;2024-01-27T10:46:04;17.80;;;7.03;;
26600;SDS011;14241;49.260;10.496;2024-01-27T10:48:30;17.98;;;5.72;;
26600;SDS011;14241;49.260;10.496;2024-01-27T10:50:55;22.08;;;6.47;;
26600;SDS011;14241;49.260;10.496;2024-01-27T10:53:22;14.00;;;5.30;;
26600;SDS011;14241;49.260;10.496;2024-01-27T10:55:53;23.50;;;5.40;;
26600;SDS011;14241;49.260;10.496;2024-01-27T10:58:19;14.02;;;4.82;;
26600;SDS011;14241;49.260;10.496;2024-01-27T11:00:46;14.73;;;4.45;;
26600;SDS011;14241;49.260;10.496;2024-01-27T11:03:12;15.40;;;4.70;;
26600;SDS011;14241;49.260;10.496;2024-01-27T11:05:37;12.68;;;4.10;;
26600;SDS011;14241;49.260;10.496;2024-01-27T11:08:04;18.02;;;4.78;;
26600;SDS011;14241;49.260;10.496;2024-01-27T11:10:30;17.48;;;5.13;;
26600;SDS011;14241;49.260;10.496;2024-01-27T11:13:02;16.95;;;4.55;;
26600;SDS011;14241;49.260;10.496;2024-01-27T11:15:27;16.45;;;4.50;;
26600;SDS011;14241;49.260;10.496;2024-01-27T11:17:56;13.82;;;4.53;;
26600;SDS011;14241;49.260;10.496;2024-01-27T11:20:22;16.50;;;5.05;;
26600;SDS011;14241;49.260;10.496;2024-01-27T11:22:48;17.08;;;5.13;;
26600;SDS011;14241;49.260;10.496;2024-01-27T11:25:16;15.10;;;4.63;;
26600;SDS011;14241;49.260;10.496;2024-01-27T11:27:43;16.42;;;4.85;;
26600;SDS011;14241;49.260;10.496;2024-01-27T11:33:00;13.70;;;4.53;;
26600;SDS011;14241;49.260;10.496;2024-01-27T11:35:26;16.00;;;4.63;;
26600;SDS011;14241;49.260;10.496;2024-01-27T11:37:51;13.40;;;3.83;;
26600;SDS011;14241;49.260;10.496;2024-01-27T11:40:17;18.13;;;5.40;;
26600;SDS011;14241;49.260;10.496;2024-01-27T11:42:42;15.02;;;4.50;;
26600;SDS011;14241;49.260;10.496;2024-01-27T11:45:08;11.55;;;4.10;;
26600;SDS011;14241;49.260;10.496;2024-01-27T11:47:34;15.23;;;4.63;;
26600;SDS011;14241;49.260;10.496;2024-01-27T11:49:59;14.43;;;4.43;;
26600;SDS011;14241;49.260;10.496;2024-01-27T11:52:25;16.35;;;4.55;;
26600;SDS011;14241;49.260;10.496;2024-01-27T11:54:56;11.93;;;4.03;;
26600;SDS011;14241;49.260;10.496;2024-01-27T11:57:22;12.60;;;3.70;;
26600;SDS011;14241;49.260;10.496;2024-01-27T11:59:47;15.45;;;3.78;;
26600;SDS011;14241;49.260;10.496;2024-01-27T12:02:13;16.92;;;6.53;;
26600;SDS011;14241;49.260;10.496;2024-01-27T12:04:38;19.13;;;7.57;;
26600;SDS011;14241;49.260;10.496;2024-01-27T12:07:04;14.52;;;3.90;;
26600;SDS011;14241;49.260;10.496;2024-01-27T12:09:29;19.98;;;7.70;;
26600;SDS011;14241;49.260;10.496;2024-01-27T12:11:54;18.30;;;4.45;;
26600;SDS011;14241;49.260;10.496;2024-01-27T12:14:20;11.27;;;3.38;;
26600;SDS011;14241;49.260;10.496;2024-01-27T12:16:45;9.65;;;3.28;;
26600;SDS011;14241;49.260;10.496;2024-01-27T12:19:12;10.02;;;3.50;;
26600;SDS011;14241;49.260;10.496;2024-01-27T12:21:38;11.68;;;3.80;;
26600;SDS011;14241;49.260;10.496;2024-01-27T12:24:03;12.38;;;3.17;;
26600;SDS011;14241;49.260;10.496;2024-01-27T12:26:29;10.63;;;3.03;;
26600;SDS011;14241;49.260;10.496;2024-01-27T12:28:55;11.98;;;3.28;;
26600;SDS011;14241;49.260;10.496;2024-01-27T12:31:23;15.70;;;3.35;;
26600;SDS011;14241;49.260;10.496;2024-01-27T12:33:53;16.77;;;3.50;;
26600;SDS011;14241;49.260;10.496;2024-01-27T12:36:19;10.75;;;2.47;;
26600;SDS011;14241;49.260;10.496;2024-01-27T12:38:56;8.15;;;2.50;;
26600;SDS011;14241;49.260;10.496;2024-01-27T12:41:21;11.90;;;3.15;;
26600;SDS011;14241;49.260;10.496;2024-01-27T12:43:47;14.35;;;3.28;;
26600;SDS011;14241;49.260;10.496;2024-01-27T12:46:12;11.90;;;2.90;;
26600;SDS011;14241;49.260;10.496;2024-01-27T12:48:40;15.35;;;3.60;;
26600;SDS011;14241;49.260;10.496;2024-01-27T12:51:05;15.15;;;3.22;;
26600;SDS011;14241;49.260;10.496;2024-01-27T12:53:30;10.48;;;2.63;;
26600;SDS011;14241;49.260;10.496;2024-01-27T12:55:56;11.85;;;3.22;;
26600;SDS011;14241;49.260;10.496;2024-01-27T12:58:21;9.18;;;2.65;;
26600;SDS011;14241;49.260;10.496;2024-01-27T13:00:46;9.00;;;2.63;;
26600;SDS011;14241;49.260;10.496;2024-01-27T13:03:12;11.43;;;2.55;;
26600;SDS011;14241;49.260;10.496;2024-01-27T13:05:37;13.35;;;2.60;;
26600;SDS011;14241;49.260;10.496;2024-01-27T13:08:04;8.25;;;2.95;;
26600;SDS011;14241;49.260;10.496;2024-01-27T13:10:29;10.43;;;2.50;;
26600;SDS011;14241;49.260;10.496;2024-01-27T13:12:54;8.63;;;2.55;;
26600;SDS011;14241;49.260;10.496;2024-01-27T13:15:20;13.32;;;3.13;;
26600;SDS011;14241;49.260;10.496;2024-01-27T13:17:47;9.15;;;3.38;;
26600;SDS011;14241;49.260;10.496;2024-01-27T13:20:12;9.57;;;2.97;;
26600;SDS011;14241;49.260;10.496;2024-01-27T13:22:38;9.88;;;3.00;;
26600;SDS011;14241;49.260;10.496;2024-01-27T13:25:03;12.77;;;3.00;;
26600;SDS011;14241;49.260;10.496;2024-01-27T13:27:30;10.60;;;2.92;;
26600;SDS011;14241;49.260;10.496;2024-01-27T13:29:56;13.02;;;3.25;;
26600;SDS011;14241;49.260;10.496;2024-01-27T13:32:21;10.70;;;3.17;;
26600;SDS011;14241;49.260;10.496;2024-01-27T13:34:46;10.55;;;3.15;;
26600;SDS011;14241;49.260;10.496;2024-01-27T13:37:12;13.68;;;3.72;;
26600;SDS011;14241;49.260;10.496;2024-01-27T13:39:41;15.10;;;3.75;;
26600;SDS011;14241;49.260;10.496;2024-01-27T13:42:06;10.25;;;3.33;;
26600;SDS011;14241;49.260;10.496;2024-01-27T13:44:31;10.15;;;3.58;;
26600;SDS011;14241;49.260;10.496;2024-01-27T13:47:00;14.05;;;3.33;;
26600;SDS011;14241;49.260;10.496;2024-01-27T13:49:25;10.38;;;3.13;;
26600;SDS011;14241;49.260;10.496;2024-01-27T13:51:51;14.88;;;4.05;;
26600;SDS011;14241;49.260;10.496;2024-01-27T13:54:16;9.05;;;3.38;;
26600;SDS011;14241;49.260;10.496;2024-01-27T13:56:41;11.48;;;3.70;;
26600;SDS011;14241;49.260;10.496;2024-01-27T13:59:07;15.15;;;3.30;;
26600;SDS011;14241;49.260;10.496;2024-01-27T14:01:33;12.05;;;3.00;;
26600;SDS011;14241;49.260;10.496;2024-01-27T14:03:59;11.93;;;3.10;;
26600;SDS011;14241;49.260;10.496;2024-01-27T14:06:24;9.48;;;2.95;;
26600;SDS011;14241;49.260;10.496;2024-01-27T14:08:50;12.73;;;3.42;;
26600;SDS011;14241;49.260;10.496;2024-01-27T14:11:16;15.60;;;3.70;;